createdAt,value
2022-11-25T00:01:55.672Z,100213.84
2022-11-25T00:04:24.214Z,100215.63
2022-11-25T00:06:52.701Z,100212.63
2022-11-25T00:09:21.215Z,100212.84
2022-11-25T00:11:49.808Z,100215.13
2022-11-25T00:14:18.352Z,100208.25
2022-11-25T00:16:48.777Z,100206.77
2022-11-25T00:19:17.967Z,100208.55
2022-11-25T00:21:46.642Z,100210.87
2022-11-25T00:24:17.373Z,100212.23
2022-11-25T00:26:46.016Z,100213.34
2022-11-25T00:29:14.653Z,100211.50
2022-11-25T00:31:43.789Z,100210.32
2022-11-25T00:34:14.744Z,100211.71
2022-11-25T00:36:43.672Z,100206.90
2022-11-25T00:39:16.062Z,100213.29
2022-11-25T00:42:09.141Z,100215.06
2022-11-25T00:44:39.702Z,100217.92
2022-11-25T00:47:16.051Z,100224.67
2022-11-25T00:49:48.014Z,100223.70
2022-11-25T00:52:20.649Z,100228.94
2022-11-25T00:54:50.553Z,100222.55
2022-11-25T00:57:23.132Z,100222.77
2022-11-25T00:59:51.919Z,100223.85
2022-11-25T01:02:20.641Z,100222.69
2022-11-25T01:04:49.698Z,100225.88
2022-11-25T01:07:18.651Z,100226.30
2022-11-25T01:09:49.398Z,100227.66
2022-11-25T01:12:17.920Z,100230.73
2022-11-25T01:14:46.553Z,100234.30
2022-11-25T01:17:15.104Z,100235.43
2022-11-25T01:19:43.690Z,100231.00
2022-11-25T01:22:12.355Z,100231.34
2022-11-25T01:24:40.891Z,100232.66
2022-11-25T01:27:09.441Z,100235.88
2022-11-25T01:29:38.032Z,100235.80
2022-11-25T01:32:06.632Z,100232.46
2022-11-25T01:34:35.808Z,100229.33
2022-11-25T01:37:04.683Z,100232.59
2022-11-25T01:39:33.552Z,100228.59
2022-11-25T01:42:02.442Z,100229.39
2022-11-25T01:44:33.229Z,100226.48
2022-11-25T01:47:14.771Z,100224.77
2022-11-25T01:49:54.114Z,100221.97
2022-11-25T01:52:32.015Z,100221.91
2022-11-25T01:55:13.151Z,100226.39
2022-11-25T01:57:57.760Z,100231.64
2022-11-25T02:00:26.302Z,100234.94
2022-11-25T02:02:57.656Z,100234.27
2022-11-25T02:05:39.373Z,100238.15
2022-11-25T02:08:08.535Z,100236.87
2022-11-25T02:10:37.478Z,100236.65
2022-11-25T02:13:06.105Z,100236.59
2022-11-25T02:15:35.433Z,100231.16
2022-11-25T02:18:04.915Z,100229.86
2022-11-25T02:20:33.693Z,100231.67
2022-11-25T02:23:43.286Z,100231.88
2022-11-25T02:26:12.000Z,100234.30
2022-11-25T02:28:40.685Z,100231.08
2022-11-25T02:31:09.381Z,100227.39
2022-11-25T02:33:38.108Z,100227.96
2022-11-25T02:36:14.397Z,100233.01
2022-11-25T02:38:49.451Z,100232.48
2022-11-25T02:41:18.922Z,100236.36
2022-11-25T02:43:47.523Z,100235.33
2022-11-25T02:46:22.493Z,100239.89
2022-11-25T02:49:08.435Z,100239.44
2022-11-25T02:51:41.684Z,100240.96
2022-11-25T02:54:12.415Z,100240.20
2022-11-25T02:56:40.997Z,100244.79
2022-11-25T02:59:10.618Z,100246.26
2022-11-25T03:01:40.049Z,100246.08
2022-11-25T03:04:08.682Z,100247.78
2022-11-25T03:06:37.362Z,100245.84
2022-11-25T03:09:05.957Z,100248.88
2022-11-25T03:11:52.979Z,100249.80
2022-11-25T03:14:21.526Z,100250.87
2022-11-25T03:16:50.381Z,100250.59
2022-11-25T03:19:19.026Z,100253.00
2022-11-25T03:21:48.001Z,100257.00
2022-11-25T03:24:16.594Z,100258.30
2022-11-25T03:26:45.129Z,100256.98
2022-11-25T03:29:13.738Z,100254.61
2022-11-25T03:31:42.504Z,100253.05
2022-11-25T03:34:11.179Z,100251.32
2022-11-25T03:36:39.752Z,100258.52
2022-11-25T03:39:08.430Z,100258.09
2022-11-25T03:41:36.961Z,100259.58
2022-11-25T03:44:05.698Z,100258.58
2022-11-25T03:46:34.318Z,100261.97
2022-11-25T03:49:03.578Z,100263.27
2022-11-25T03:51:32.153Z,100263.41
2022-11-25T03:54:00.714Z,100260.45
2022-11-25T03:56:29.333Z,100264.27
2022-11-25T03:58:57.910Z,100265.98
2022-11-25T04:01:26.542Z,100266.92
2022-11-25T04:03:55.191Z,100262.26
2022-11-25T04:06:24.115Z,100259.59
2022-11-25T04:08:52.811Z,100260.15
2022-11-25T04:11:21.545Z,100259.14
2022-11-25T04:13:50.079Z,100256.14
2022-11-25T04:16:27.778Z,100254.14
2022-11-25T04:18:56.335Z,100259.45
2022-11-25T04:21:24.892Z,100260.65
2022-11-25T04:23:53.416Z,100261.38
2022-11-25T04:26:22.287Z,100260.91
2022-11-25T04:28:52.983Z,100263.85
2022-11-25T04:31:21.745Z,100267.22
2022-11-25T04:33:52.703Z,100276.29
2022-11-25T04:36:21.589Z,100274.43
2022-11-25T04:38:50.274Z,100273.29
2022-11-25T04:41:18.811Z,100272.55
2022-11-25T04:43:47.348Z,100272.73
2022-11-25T04:47:32.256Z,100270.90
2022-11-25T04:50:00.879Z,100276.40
2022-11-25T04:52:29.352Z,100278.73
2022-11-25T04:54:57.907Z,100278.23
2022-11-25T04:57:26.448Z,100277.89
2022-11-25T04:59:54.999Z,100280.66
2022-11-25T05:02:27.437Z,100286.05
2022-11-25T05:04:57.895Z,100289.52
2022-11-25T05:07:28.929Z,100289.98
2022-11-25T05:09:57.770Z,100288.53
2022-11-25T05:12:29.612Z,100290.36
2022-11-25T05:14:58.453Z,100294.83
2022-11-25T05:17:30.621Z,100297.05
2022-11-25T05:19:59.245Z,100296.64
2022-11-25T05:22:33.159Z,100288.02
2022-11-25T05:25:02.107Z,100285.50
2022-11-25T05:27:30.647Z,100290.98
2022-11-25T05:29:59.262Z,100294.64
2022-11-25T05:32:27.805Z,100299.02
2022-11-25T05:34:56.320Z,100299.10
2022-11-25T05:37:24.917Z,100299.06
2022-11-25T05:39:53.445Z,100297.38
2022-11-25T05:42:21.979Z,100300.66
2022-11-25T05:44:50.586Z,100306.13
2022-11-25T05:47:19.072Z,100320.27
2022-11-25T05:49:47.804Z,100317.41
2022-11-25T05:52:18.004Z,100319.40
2022-11-25T05:54:46.561Z,100321.75
2022-11-25T05:57:15.085Z,100324.95
2022-11-25T05:59:43.746Z,100334.27
2022-11-25T06:02:12.341Z,100332.55
2022-11-25T06:04:40.941Z,100333.04
2022-11-25T06:07:09.523Z,100332.27
2022-11-25T06:09:38.334Z,100330.41
2022-11-25T06:12:07.278Z,100334.77
2022-11-25T06:14:36.269Z,100332.23
2022-11-25T06:17:05.627Z,100335.70
2022-11-25T06:19:34.337Z,100337.73
2022-11-25T06:22:02.845Z,100339.52
2022-11-25T06:24:31.450Z,100337.70
2022-11-25T06:27:01.096Z,100338.40
2022-11-25T06:29:29.763Z,100336.96
2022-11-25T06:31:58.594Z,100340.35
2022-11-25T06:34:27.267Z,100342.55
2022-11-25T06:36:56.286Z,100344.13
2022-11-25T06:39:25.584Z,100344.55
2022-11-25T06:41:54.112Z,100350.70
2022-11-25T06:44:22.704Z,100355.61
2022-11-25T06:46:51.358Z,100357.27
2022-11-25T06:49:19.982Z,100359.73
2022-11-25T06:51:50.425Z,100361.23
2022-11-25T06:54:18.962Z,100364.23
2022-11-25T06:56:53.868Z,100362.31
2022-11-25T06:59:22.558Z,100363.22
2022-11-25T07:01:51.242Z,100365.95
2022-11-25T07:04:19.857Z,100365.08
2022-11-25T07:06:49.972Z,100364.61
2022-11-25T07:09:19.712Z,100367.65
2022-11-25T07:11:49.471Z,100368.77
2022-11-25T07:14:18.146Z,100369.65
2022-11-25T07:16:46.961Z,100373.67
2022-11-25T07:19:18.177Z,100374.77
2022-11-25T07:21:47.054Z,100372.14
2022-11-25T07:24:18.413Z,100371.88
2022-11-25T07:26:47.065Z,100377.65
2022-11-25T07:29:51.595Z,100376.74
2022-11-25T07:32:10.274Z,100377.83
2022-11-25T07:34:39.512Z,100383.53
2022-11-25T07:37:08.287Z,100379.91
2022-11-25T07:39:37.256Z,100379.95
2022-11-25T07:42:05.946Z,100382.76
2022-11-25T07:44:34.625Z,100381.16
2022-11-25T07:47:03.145Z,100376.56
2022-11-25T07:49:31.884Z,100377.06
2022-11-25T07:52:02.385Z,100378.33
2022-11-25T07:54:31.428Z,100377.89
2022-11-25T07:57:00.013Z,100378.69
2022-11-25T07:59:28.630Z,100381.39
2022-11-25T08:01:57.182Z,100387.31
2022-11-25T08:04:25.912Z,100385.10
2022-11-25T08:06:55.192Z,100385.67
2022-11-25T08:09:24.285Z,100387.58
2022-11-25T08:11:53.951Z,100392.49
2022-11-25T08:14:22.500Z,100394.91
2022-11-25T08:16:51.167Z,100399.32
2022-11-25T08:19:19.813Z,100392.34
2022-11-25T08:21:48.414Z,100394.64
2022-11-25T08:24:20.832Z,100396.69
2022-11-25T08:26:49.696Z,100400.19
2022-11-25T08:29:19.567Z,100400.45
2022-11-25T08:31:48.557Z,100397.03
2022-11-25T08:34:23.011Z,100396.20
2022-11-25T08:36:52.622Z,100392.20
2022-11-25T08:39:51.084Z,100395.23
2022-11-25T08:42:11.005Z,100397.70
2022-11-25T08:44:39.758Z,100398.59
2022-11-25T08:47:10.031Z,100405.54
2022-11-25T08:49:41.705Z,100406.84
2022-11-25T08:52:11.175Z,100402.98
2022-11-25T08:54:39.741Z,100402.89
2022-11-25T08:57:08.481Z,100406.70
2022-11-25T08:59:37.716Z,100405.45
2022-11-25T09:02:08.763Z,100406.83
2022-11-25T09:04:39.512Z,100408.98
2022-11-25T09:07:08.265Z,100407.88
2022-11-25T09:09:37.145Z,100409.20
2022-11-25T09:12:06.066Z,100410.97
2022-11-25T09:14:34.694Z,100411.62
2022-11-25T09:17:07.888Z,100416.19
2022-11-25T09:19:36.790Z,100414.41
2022-11-25T09:22:05.767Z,100420.48
2022-11-25T09:24:35.854Z,100419.14
2022-11-25T09:27:04.459Z,100419.38
2022-11-25T09:29:33.239Z,100419.00
2022-11-25T09:32:02.104Z,100419.04
2022-11-25T09:34:30.787Z,100415.70
2022-11-25T09:36:59.374Z,100414.82
2022-11-25T09:39:29.992Z,100413.52
2022-11-25T09:42:57.112Z,100414.30
2022-11-25T09:46:39.434Z,100413.95
2022-11-25T09:49:22.955Z,100408.52
2022-11-25T09:52:14.045Z,100413.08
2022-11-25T09:57:09.907Z,100410.27
2022-11-25T10:00:14.194Z,100403.90
2022-11-25T10:03:30.015Z,100405.90
2022-11-25T10:06:04.706Z,100396.80
2022-11-25T10:08:43.689Z,100395.63
2022-11-25T10:11:55.045Z,100393.77
2022-11-25T10:14:47.498Z,100389.56
2022-11-25T10:17:33.960Z,100389.88
2022-11-25T10:20:13.354Z,100398.52
2022-11-25T10:22:45.753Z,100400.13
2022-11-25T10:25:31.782Z,100398.60
2022-11-25T10:28:18.686Z,100399.87
2022-11-25T10:31:06.465Z,100399.70
2022-11-25T10:33:46.423Z,100403.63
2022-11-25T10:36:21.916Z,100404.23
2022-11-25T10:39:15.376Z,100406.45
2022-11-25T10:41:57.705Z,100403.49
2022-11-25T10:44:36.438Z,100409.52
2022-11-25T10:47:26.787Z,100410.80
2022-11-25T10:50:25.655Z,100415.79
2022-11-25T10:53:13.344Z,100411.61
2022-11-25T10:56:05.252Z,100410.88
2022-11-25T10:58:37.412Z,100410.11
2022-11-25T11:01:22.706Z,100411.30
2022-11-25T11:04:15.327Z,100406.86
2022-11-25T11:06:51.480Z,100411.17
2022-11-25T11:09:43.275Z,100414.40
2022-11-25T11:12:26.971Z,100419.09
2022-11-25T11:15:30.239Z,100420.64
2022-11-25T11:18:21.499Z,100418.02
2022-11-25T11:20:56.131Z,100418.39
2022-11-25T11:23:25.738Z,100421.87
2022-11-25T11:26:04.799Z,100422.38
2022-11-25T11:28:38.994Z,100419.16
2022-11-25T11:31:26.917Z,100420.17
2022-11-25T11:34:40.913Z,100418.96
2022-11-25T11:37:36.165Z,100414.62
2022-11-25T11:40:24.283Z,100412.15
2022-11-25T11:43:34.038Z,100418.77
2022-11-25T11:46:31.113Z,100413.66
2022-11-25T11:49:05.632Z,100416.30
2022-11-25T11:51:45.652Z,100413.06
2022-11-25T11:54:22.732Z,100415.52
2022-11-25T11:57:02.325Z,100416.57
2022-11-25T11:59:52.834Z,100417.77
2022-11-25T12:02:48.788Z,100420.13
2022-11-25T12:05:23.271Z,100416.51
2022-11-25T12:11:05.996Z,100414.84
2022-11-25T12:14:07.359Z,100412.42
2022-11-25T12:16:58.027Z,100411.99
2022-11-25T12:20:07.637Z,100409.88
2022-11-25T12:22:47.406Z,100408.54
2022-11-25T12:25:28.653Z,100405.14
2022-11-25T12:28:18.627Z,100397.58
2022-11-25T12:31:15.813Z,100394.23
2022-11-25T12:34:01.663Z,100391.59
2022-11-25T12:36:41.466Z,100394.00
2022-11-25T12:39:39.804Z,100393.94
2022-11-25T12:42:23.200Z,100391.34
2022-11-25T12:45:05.384Z,100394.64
2022-11-25T12:47:34.067Z,100397.91
2022-11-25T12:50:03.354Z,100395.58
2022-11-25T12:53:16.381Z,100395.17
2022-11-25T12:55:44.923Z,100396.77
2022-11-25T12:58:58.877Z,100396.41
2022-11-25T13:02:06.364Z,100402.91
2022-11-25T13:05:00.460Z,100406.77
2022-11-25T13:08:11.357Z,100404.71
2022-11-25T13:11:15.887Z,100404.95
2022-11-25T13:14:33.384Z,100408.05
2022-11-25T13:17:03.027Z,100410.19
2022-11-25T13:19:38.054Z,100410.90
2022-11-25T13:22:23.769Z,100411.71
2022-11-25T13:24:52.249Z,100409.01
2022-11-25T13:27:52.993Z,100413.34
2022-11-25T13:30:33.573Z,100413.00
2022-11-25T13:33:14.055Z,100415.67
2022-11-25T13:35:53.187Z,100418.33
2022-11-25T13:38:30.945Z,100416.70
2022-11-25T13:41:21.255Z,100415.13
2022-11-25T13:44:32.434Z,100415.80
2022-11-25T13:47:39.630Z,100418.83
2022-11-25T13:50:21.851Z,100417.17
2022-11-25T13:53:03.923Z,100415.35
2022-11-25T13:55:34.328Z,100412.90
2022-11-25T13:58:31.740Z,100416.70
2022-11-25T14:01:29.599Z,100415.92
2022-11-25T14:04:01.160Z,100415.99
2022-11-25T14:07:03.759Z,100421.36
2022-11-25T14:10:10.975Z,100423.31
2022-11-25T14:13:11.741Z,100427.88
2022-11-25T14:16:07.550Z,100430.38
2022-11-25T14:19:51.575Z,100434.98
2022-11-25T14:23:18.197Z,100435.05
2022-11-25T14:26:02.758Z,100437.30
2022-11-25T14:29:00.131Z,100435.20
2022-11-25T14:32:00.427Z,100435.73
2022-11-25T14:34:45.405Z,100436.84
2022-11-25T14:37:35.081Z,100440.38
2022-11-25T14:40:17.989Z,100440.33
2022-11-25T14:42:52.562Z,100443.20
2022-11-25T14:45:30.033Z,100441.82
2022-11-25T14:47:58.702Z,100443.13
2022-11-25T14:50:34.575Z,100446.76
2022-11-25T14:53:09.958Z,100445.88
2022-11-25T14:55:38.619Z,100449.98
2022-11-25T14:58:07.177Z,100450.80
2022-11-25T15:00:50.990Z,100452.95
2022-11-25T15:03:20.467Z,100457.44
2022-11-25T15:06:01.491Z,100457.09
2022-11-25T15:08:41.566Z,100457.60
2022-11-25T15:11:22.907Z,100460.00
2022-11-25T15:14:03.866Z,100461.69
2022-11-25T15:16:40.593Z,100461.02
2022-11-25T15:19:20.138Z,100459.27
2022-11-25T15:24:55.843Z,100461.69
2022-11-25T15:27:28.194Z,100465.35
2022-11-25T15:29:57.766Z,100464.16
2022-11-25T15:32:30.193Z,100462.23
2022-11-25T15:35:01.891Z,100462.05
2022-11-25T15:37:30.568Z,100463.08
2022-11-25T15:40:32.047Z,100463.10
2022-11-25T15:43:05.820Z,100462.06
2022-11-25T15:45:46.601Z,100465.41
2022-11-25T15:48:31.589Z,100467.36
2022-11-25T15:51:06.264Z,100468.09
2022-11-25T15:53:37.927Z,100469.14
2022-11-25T15:56:07.613Z,100470.80
2022-11-25T15:58:36.448Z,100472.30
2022-11-25T16:01:23.108Z,100469.48
2022-11-25T16:03:52.118Z,100467.50
2022-11-25T16:06:28.960Z,100465.48
2022-11-25T16:09:00.711Z,100466.83
2022-11-25T16:11:33.657Z,100469.39
2022-11-25T16:14:26.014Z,100473.55
2022-11-25T16:17:12.765Z,100479.80
2022-11-25T16:19:45.760Z,100485.75
2022-11-25T16:22:19.138Z,100483.94
2022-11-25T16:26:26.763Z,100487.80
2022-11-25T16:27:44.668Z,100491.94
2022-11-25T16:30:20.911Z,100487.02
2022-11-25T16:32:49.466Z,100487.67
2022-11-25T16:35:23.838Z,100488.49
2022-11-25T16:37:58.284Z,100487.55
2022-11-25T16:40:28.419Z,100484.19
2022-11-25T16:42:57.068Z,100484.42
2022-11-25T16:45:28.356Z,100489.73
2022-11-25T16:47:57.188Z,100492.42
2022-11-25T16:50:25.804Z,100491.20
2022-11-25T16:52:54.563Z,100490.72
2022-11-25T16:55:23.979Z,100490.68
2022-11-25T16:57:54.542Z,100498.73
2022-11-25T17:00:23.264Z,100503.09
2022-11-25T17:02:52.005Z,100503.25
2022-11-25T17:05:24.863Z,100503.17
2022-11-25T17:07:53.636Z,100499.27
2022-11-25T17:10:22.375Z,100498.63
2022-11-25T17:12:51.849Z,100500.98
2022-11-25T17:15:29.397Z,100503.37
2022-11-25T17:18:00.101Z,100509.40
2022-11-25T17:20:28.835Z,100515.98
2022-11-25T17:22:58.276Z,100515.85
2022-11-25T17:25:32.384Z,100522.02
2022-11-25T17:28:05.954Z,100520.64
2022-11-25T17:30:40.550Z,100522.77
2022-11-25T17:33:19.590Z,100524.88
2022-11-25T17:35:48.185Z,100529.68
2022-11-25T17:38:20.554Z,100531.13
2022-11-25T17:40:50.657Z,100530.30
2022-11-25T17:43:21.148Z,100532.09
2022-11-25T17:45:49.840Z,100535.31
2022-11-25T17:48:18.629Z,100530.72
2022-11-25T17:50:47.555Z,100530.03
2022-11-25T17:53:16.172Z,100530.88
2022-11-25T17:55:44.764Z,100529.27
2022-11-25T17:58:19.356Z,100530.48
2022-11-25T18:00:49.040Z,100526.80
2022-11-25T18:03:17.700Z,100526.52
2022-11-25T18:05:46.307Z,100527.42
2022-11-25T18:08:15.167Z,100529.61
2022-11-25T18:10:46.279Z,100530.05
2022-11-25T18:13:16.743Z,100528.41
2022-11-25T18:15:45.473Z,100535.52
2022-11-25T18:18:25.645Z,100541.27
2022-11-25T18:20:54.344Z,100539.63
2022-11-25T18:23:23.063Z,100542.10
2022-11-25T18:25:52.966Z,100545.93
2022-11-25T18:28:25.996Z,100544.80
2022-11-25T18:31:00.073Z,100545.21
2022-11-25T18:33:29.455Z,100546.16
2022-11-25T18:35:58.543Z,100546.60
2022-11-25T18:38:27.197Z,100548.35
2022-11-25T18:40:56.502Z,100553.48
2022-11-25T18:51:54.229Z,100572.22
2022-11-25T18:54:22.789Z,100576.24
2022-11-25T18:56:52.472Z,100573.17
2022-11-25T18:59:36.539Z,100572.39
2022-11-25T19:02:16.389Z,100574.91
2022-11-25T19:04:45.901Z,100576.70
2022-11-25T19:07:14.841Z,100574.85
2022-11-25T19:09:43.526Z,100574.93
2022-11-25T19:12:18.252Z,100580.79
2022-11-25T19:14:47.826Z,100578.61
2022-11-25T19:17:22.094Z,100580.52
2022-11-25T19:19:50.802Z,100581.86
2022-11-25T19:22:22.123Z,100586.64
2022-11-25T19:24:51.409Z,100580.36
2022-11-25T19:27:24.087Z,100584.25
2022-11-25T19:29:53.269Z,100583.71
2022-11-25T19:32:29.752Z,100588.34
2022-11-25T19:35:05.812Z,100591.95
2022-11-25T19:37:34.678Z,100590.73
2022-11-25T19:40:14.847Z,100591.52
2022-11-25T19:42:48.699Z,100593.39
2022-11-25T19:45:20.666Z,100603.49
2022-11-25T19:47:52.392Z,100606.16
2022-11-25T19:50:28.009Z,100607.46
2022-11-25T19:52:56.640Z,100612.02
2022-11-25T19:55:30.067Z,100612.46
2022-11-25T19:57:59.687Z,100619.11
2022-11-25T20:00:28.317Z,100618.48
2022-11-25T20:02:57.040Z,100618.02
2022-11-25T20:05:38.505Z,100620.29
2022-11-25T20:08:18.815Z,100626.18
2022-11-25T20:10:47.909Z,100630.38
2022-11-25T20:13:16.613Z,100634.55
2022-11-25T20:15:46.154Z,100638.88
2022-11-25T20:18:20.157Z,100639.88
2022-11-25T20:21:02.370Z,100640.77
2022-11-25T20:23:43.579Z,100640.11
2022-11-25T20:26:27.012Z,100642.44
2022-11-25T20:28:55.582Z,100640.95
2022-11-25T20:31:30.532Z,100641.77
2022-11-25T20:33:59.422Z,100638.73
2022-11-25T20:36:33.347Z,100642.41
2022-11-25T20:39:03.921Z,100645.39
2022-11-25T20:41:33.527Z,100650.29
2022-11-25T20:44:02.515Z,100656.52
2022-11-25T20:46:31.152Z,100662.05
2022-11-25T20:49:03.436Z,100665.31
2022-11-25T20:51:32.067Z,100663.77
2022-11-25T20:54:01.452Z,100667.55
2022-11-25T20:56:30.427Z,100671.84
2022-11-25T20:58:59.004Z,100676.30
2022-11-25T21:01:27.779Z,100678.89
2022-11-25T21:03:56.498Z,100680.34
2022-11-25T21:06:37.847Z,100684.18
2022-11-25T21:09:19.302Z,100683.91
2022-11-25T21:11:49.085Z,100687.19
2022-11-25T21:14:20.108Z,100684.71
2022-11-25T21:16:48.891Z,100684.39
2022-11-25T21:19:17.585Z,100684.30
2022-11-25T21:21:49.736Z,100687.95
2022-11-25T21:24:32.985Z,100692.14
2022-11-25T21:27:11.278Z,100694.46
2022-11-25T21:29:45.093Z,100697.49
2022-11-25T21:32:27.451Z,100702.73
2022-11-25T21:34:57.032Z,100701.26
2022-11-25T21:37:38.074Z,100710.25
2022-11-25T21:40:16.610Z,100708.90
2022-11-25T21:42:45.172Z,100711.66
2022-11-25T21:45:18.448Z,100715.14
2022-11-25T21:47:47.018Z,100719.13
2022-11-25T21:50:18.981Z,100721.20
2022-11-25T21:52:47.666Z,100725.72
2022-11-25T21:55:17.804Z,100727.85
2022-11-25T21:57:46.553Z,100729.27
2022-11-25T22:00:25.505Z,100727.08
2022-11-25T22:02:54.214Z,100730.92
2022-11-25T22:05:26.985Z,100730.48
2022-11-25T22:07:55.644Z,100734.89
2022-11-25T22:10:24.380Z,100734.46
2022-11-25T22:12:52.947Z,100736.91
2022-11-25T22:15:23.179Z,100733.66
2022-11-25T22:17:56.054Z,100732.14
2022-11-25T22:20:34.011Z,100735.73
2022-11-25T22:23:02.926Z,100735.23
2022-11-25T22:25:32.880Z,100738.11
2022-11-25T22:28:01.442Z,100741.83
2022-11-25T22:30:30.071Z,100741.59
2022-11-25T22:33:02.769Z,100739.79
2022-11-25T22:35:31.448Z,100742.86
2022-11-25T22:38:00.535Z,100742.00
2022-11-25T22:40:29.228Z,100739.97
2022-11-25T22:42:57.891Z,100739.52
2022-11-25T22:45:32.405Z,100735.26
2022-11-25T22:48:05.436Z,100738.02
2022-11-25T22:50:34.969Z,100744.02
2022-11-25T22:53:13.066Z,100744.61
2022-11-25T22:55:42.450Z,100747.06
2022-11-25T22:58:13.982Z,100747.29
2022-11-25T23:00:46.800Z,100743.38
2022-11-25T23:03:35.709Z,100743.71
2022-11-25T23:06:05.592Z,100737.52
2022-11-25T23:08:34.545Z,100738.73
2022-11-25T23:11:03.383Z,100745.83
2022-11-25T23:13:32.015Z,100755.59
2022-11-25T23:16:04.088Z,100761.16
2022-11-25T23:18:42.928Z,100762.25
2022-11-25T23:21:22.978Z,100765.47
2022-11-25T23:23:52.610Z,100765.20
2022-11-25T23:29:07.981Z,100769.39
2022-11-25T23:31:39.090Z,100772.32
2022-11-25T23:34:31.028Z,100775.15
2022-11-25T23:37:00.449Z,100778.14
2022-11-25T23:39:29.096Z,100781.02
2022-11-25T23:41:57.877Z,100779.39
2022-11-25T23:44:31.637Z,100780.86
2022-11-25T23:47:07.919Z,100782.96
2022-11-25T23:49:41.469Z,100782.52
2022-11-25T23:52:18.675Z,100786.43
2022-11-25T23:54:49.660Z,100785.81
2022-11-25T23:57:22.735Z,100790.27
2022-11-25T23:59:52.662Z,100789.92
